Time;durP1;ratioP1;P1;durP2;ratioP2;P2;SDS_P1;SDS_P2;PMS_P1;PMS_P2;Temp;Humidity;BMP_temperature;BMP_pressure;BME280_temperature;BME280_humidity;BME280_pressure;Samples;Min_cycle;Max_cycle;Signal;HPM_P1;HPM_P2
2022/09/23 00:00:00;;;;;;;0.7;0.7;;;;;;;12.2;100.0;101540;;;;
2022/09/23 00:01:01;;;;;;;0.7;0.7;;;;;;;12.1;100.0;101530;;;;
2022/09/23 00:02:00;;;;;;;0.7;0.7;;;;;;;12.1;100.0;101530;;;;
2022/09/23 00:03:00;;;;;;;0.7;0.7;;;;;;;12.1;100.0;101530;;;;
2022/09/23 00:04:00;;;;;;;0.7;0.7;;;;;;;12.1;100.0;101530;;;;
2022/09/23 00:05:00;;;;;;;0.7;0.7;;;;;;;12.1;100.0;101530;;;;
2022/09/23 00:06:01;;;;;;;0.7;0.7;;;;;;;12.1;100.0;101530;;;;
2022/09/23 00:07:00;;;;;;;0.7;0.7;;;;;;;12.1;100.0;101530;;;;
2022/09/23 00:08:00;;;;;;;0.7;0.7;;;;;;;12.1;100.0;101530;;;;
2022/09/23 00:09:00;;;;;;;0.7;0.7;;;;;;;12.1;100.0;101540;;;;
2022/09/23 00:10:00;;;;;;;0.7;0.7;;;;;;;12.1;100.0;101540;;;;
2022/09/23 00:11:05;;;;;;;0.7;0.7;;;;;;;12.0;100.0;101540;;;;
2022/09/23 00:12:00;;;;;;;0.7;0.7;;;;;;;12.0;100.0;101540;;;;
2022/09/23 00:13:00;;;;;;;0.7;0.7;;;;;;;12.0;100.0;101530;;;;
2022/09/23 00:14:00;;;;;;;0.7;0.7;;;;;;;12.0;100.0;101530;;;;
2022/09/23 00:15:00;;;;;;;0.7;0.7;;;;;;;12.0;100.0;101530;;;;
2022/09/23 00:16:02;;;;;;;0.7;0.7;;;;;;;12.0;100.0;101530;;;;
2022/09/23 00:17:00;;;;;;;0.7;0.7;;;;;;;11.9;100.0;101530;;;;
2022/09/23 00:18:00;;;;;;;0.7;0.7;;;;;;;11.9;100.0;101530;;;;
2022/09/23 00:19:01;;;;;;;0.7;0.7;;;;;;;12.0;100.0;101530;;;;
2022/09/23 00:20:00;;;;;;;0.7;0.7;;;;;;;12.0;100.0;101530;;;;
2022/09/23 00:21:02;;;;;;;0.7;0.7;;;;;;;12.0;100.0;101530;;;;
2022/09/23 00:22:00;;;;;;;0.7;0.7;;;;;;;12.0;100.0;101530;;;;
2022/09/23 00:23:00;;;;;;;0.7;0.7;;;;;;;12.0;100.0;101520;;;;
2022/09/23 00:24:01;;;;;;;0.7;0.7;;;;;;;12.0;100.0;101520;;;;
2022/09/23 00:25:00;;;;;;;0.7;0.7;;;;;;;11.9;100.0;101520;;;;
2022/09/23 00:26:01;;;;;;;0.7;0.7;;;;;;;11.9;100.0;101520;;;;
2022/09/23 00:27:00;;;;;;;0.8;0.8;;;;;;;11.9;100.0;101520;;;;
2022/09/23 00:28:00;;;;;;;0.8;0.8;;;;;;;11.9;100.0;101520;;;;
2022/09/23 00:29:00;;;;;;;0.8;0.8;;;;;;;11.9;100.0;101520;;;;
2022/09/23 00:30:00;;;;;;;0.8;0.8;;;;;;;11.9;100.0;101520;;;;
2022/09/23 00:31:02;;;;;;;0.8;0.8;;;;;;;11.9;100.0;101520;;;;
2022/09/23 00:32:00;;;;;;;0.8;0.8;;;;;;;11.9;100.0;101520;;;;
2022/09/23 00:33:00;;;;;;;0.8;0.8;;;;;;;11.9;100.0;101510;;;;
2022/09/23 00:34:00;;;;;;;0.8;0.8;;;;;;;11.9;100.0;101510;;;;
2022/09/23 00:35:02;;;;;;;0.8;0.8;;;;;;;11.9;100.0;101520;;;;
2022/09/23 00:36:00;;;;;;;0.8;0.8;;;;;;;11.9;100.0;101520;;;;
2022/09/23 00:37:00;;;;;;;0.8;0.8;;;;;;;11.9;100.0;101510;;;;
2022/09/23 00:38:00;;;;;;;0.8;0.8;;;;;;;11.9;100.0;101510;;;;
2022/09/23 00:39:02;;;;;;;0.8;0.8;;;;;;;11.9;100.0;101520;;;;
2022/09/23 00:40:00;;;;;;;0.8;0.8;;;;;;;11.9;100.0;101520;;;;
2022/09/23 00:41:00;;;;;;;0.8;0.8;;;;;;;11.9;100.0;101510;;;;
2022/09/23 00:42:00;;;;;;;0.8;0.8;;;;;;;11.9;100.0;101510;;;;
2022/09/23 00:43:00;;;;;;;0.8;0.8;;;;;;;11.8;100.0;101520;;;;
2022/09/23 00:44:00;;;;;;;0.8;0.8;;;;;;;11.8;100.0;101520;;;;
2022/09/23 00:45:00;;;;;;;0.8;0.8;;;;;;;11.6;100.0;101520;;;;
2022/09/23 00:46:00;;;;;;;0.8;0.8;;;;;;;11.6;100.0;101520;;;;
2022/09/23 00:47:00;;;;;;;1.0;1.0;;;;;;;11.8;100.0;101520;;;;
2022/09/23 00:48:01;;;;;;;1.0;1.0;;;;;;;11.8;100.0;101520;;;;
2022/09/23 00:49:07;;;;;;;1.0;1.0;;;;;;;11.7;100.0;101510;;;;
2022/09/23 00:50:10;;;;;;;1.0;1.0;;;;;;;11.7;100.0;101510;;;;
2022/09/23 00:51:00;;;;;;;1.0;1.0;;;;;;;11.5;100.0;101510;;;;
2022/09/23 00:52:05;;;;;;;1.0;1.0;;;;;;;11.5;100.0;101510;;;;
2022/09/23 00:53:02;;;;;;;1.0;1.0;;;;;;;11.4;100.0;101510;;;;
2022/09/23 00:54:01;;;;;;;1.0;1.0;;;;;;;11.4;100.0;101510;;;;
2022/09/23 00:55:01;;;;;;;1.0;1.0;;;;;;;11.6;100.0;101510;;;;
2022/09/23 00:56:01;;;;;;;1.0;1.0;;;;;;;11.6;100.0;101510;;;;
2022/09/23 00:57:00;;;;;;;1.0;1.0;;;;;;;11.6;100.0;101510;;;;
2022/09/23 00:58:01;;;;;;;1.0;1.0;;;;;;;11.6;100.0;101510;;;;
2022/09/23 00:59:00;;;;;;;1.0;1.0;;;;;;;11.6;100.0;101510;;;;
2022/09/23 01:00:00;;;;;;;1.0;1.0;;;;;;;11.6;100.0;101510;;;;
2022/09/23 01:01:01;;;;;;;1.0;1.0;;;;;;;11.6;100.0;101510;;;;
2022/09/23 01:02:01;;;;;;;1.0;1.0;;;;;;;11.6;100.0;101510;;;;
2022/09/23 01:03:01;;;;;;;1.0;1.0;;;;;;;11.6;100.0;101510;;;;
2022/09/23 01:04:00;;;;;;;1.0;1.0;;;;;;;11.6;100.0;101510;;;;
2022/09/23 01:05:00;;;;;;;1.0;1.0;;;;;;;11.5;100.0;101510;;;;
2022/09/23 01:06:00;;;;;;;1.0;1.0;;;;;;;11.5;100.0;101510;;;;
2022/09/23 01:07:00;;;;;;;1.0;1.0;;;;;;;11.5;100.0;101500;;;;
2022/09/23 01:08:01;;;;;;;1.0;1.0;;;;;;;11.5;100.0;101500;;;;
2022/09/23 01:09:00;;;;;;;1.0;1.0;;;;;;;11.3;100.0;101500;;;;
2022/09/23 01:10:01;;;;;;;1.0;1.0;;;;;;;11.3;100.0;101500;;;;
2022/09/23 01:11:10;;;;;;;1.0;1.0;;;;;;;11.4;100.0;101500;;;;
2022/09/23 01:12:03;;;;;;;1.0;1.0;;;;;;;11.4;100.0;101500;;;;
2022/09/23 01:13:01;;;;;;;1.0;1.0;;;;;;;11.4;100.0;101500;;;;
2022/09/23 01:14:00;;;;;;;1.0;1.0;;;;;;;11.4;100.0;101500;;;;
2022/09/23 01:15:10;;;;;;;1.0;1.0;;;;;;;11.5;100.0;101500;;;;
2022/09/23 01:16:00;;;;;;;1.0;1.0;;;;;;;11.5;100.0;101500;;;;
2022/09/23 01:17:06;;;;;;;1.0;1.0;;;;;;;11.4;100.0;101500;;;;
2022/09/23 01:18:10;;;;;;;1.0;1.0;;;;;;;11.4;100.0;101500;;;;
2022/09/23 01:19:09;;;;;;;1.0;1.0;;;;;;;11.4;100.0;101490;;;;
2022/09/23 01:20:01;;;;;;;1.0;1.0;;;;;;;11.4;100.0;101490;;;;
2022/09/23 01:21:00;;;;;;;1.0;1.0;;;;;;;11.4;100.0;101500;;;;
2022/09/23 01:22:10;;;;;;;1.0;1.0;;;;;;;11.4;100.0;101500;;;;
2022/09/23 01:23:10;;;;;;;1.0;1.0;;;;;;;11.4;100.0;101490;;;;
2022/09/23 01:24:01;;;;;;;1.0;1.0;;;;;;;11.4;100.0;101490;;;;
2022/09/23 01:25:03;;;;;;;1.0;1.0;;;;;;;11.4;100.0;101490;;;;
2022/09/23 01:26:02;;;;;;;1.0;1.0;;;;;;;11.4;100.0;101490;;;;
2022/09/23 01:27:10;;;;;;;1.3;1.3;;;;;;;11.4;100.0;101490;;;;
2022/09/23 01:28:10;;;;;;;1.3;1.3;;;;;;;11.4;100.0;101490;;;;
2022/09/23 01:29:10;;;;;;;1.3;1.3;;;;;;;11.4;100.0;101500;;;;
2022/09/23 01:30:10;;;;;;;1.3;1.3;;;;;;;11.4;100.0;101500;;;;
2022/09/23 01:31:05;;;;;;;1.3;1.3;;;;;;;11.4;100.0;101500;;;;
2022/09/23 01:32:07;;;;;;;1.3;1.3;;;;;;;11.4;100.0;101500;;;;
2022/09/23 01:33:03;;;;;;;1.3;1.3;;;;;;;11.4;100.0;101500;;;;
2022/09/23 01:34:08;;;;;;;1.3;1.3;;;;;;;11.4;100.0;101500;;;;
2022/09/23 01:35:01;;;;;;;1.3;1.3;;;;;;;11.3;100.0;101490;;;;
2022/09/23 01:36:05;;;;;;;1.3;1.3;;;;;;;11.3;100.0;101490;;;;
2022/09/23 01:37:05;;;;;;;1.3;1.3;;;;;;;11.2;100.0;101500;;;;
2022/09/23 01:38:00;;;;;;;1.3;1.3;;;;;;;11.2;100.0;101500;;;;
2022/09/23 01:39:07;;;;;;;1.3;1.3;;;;;;;11.2;100.0;101500;;;;
2022/09/23 01:40:05;;;;;;;1.3;1.3;;;;;;;11.2;100.0;101500;;;;
2022/09/23 01:41:11;;;;;;;1.3;1.3;;;;;;;11.2;100.0;101490;;;;
2022/09/23 01:42:10;;;;;;;1.3;1.3;;;;;;;11.2;100.0;101490;;;;
2022/09/23 01:43:10;;;;;;;1.3;1.3;;;;;;;11.2;100.0;101490;;;;
2022/09/23 01:44:07;;;;;;;1.3;1.3;;;;;;;11.2;100.0;101490;;;;
2022/09/23 01:45:06;;;;;;;1.3;1.3;;;;;;;11.1;100.0;101490;;;;
2022/09/23 01:46:04;;;;;;;1.3;1.3;;;;;;;11.1;100.0;101490;;;;
2022/09/23 01:47:07;;;;;;;0.9;0.9;;;;;;;11.3;100.0;101480;;;;
2022/09/23 01:48:00;;;;;;;0.9;0.9;;;;;;;11.3;100.0;101480;;;;
2022/09/23 01:49:06;;;;;;;0.9;0.9;;;;;;;11.3;100.0;101480;;;;
2022/09/23 01:50:00;;;;;;;0.9;0.9;;;;;;;11.3;100.0;101480;;;;
2022/09/23 01:51:10;;;;;;;0.9;0.9;;;;;;;11.1;100.0;101480;;;;
2022/09/23 01:52:10;;;;;;;0.9;0.9;;;;;;;11.1;100.0;101480;;;;
2022/09/23 01:53:03;;;;;;;0.9;0.9;;;;;;;11.0;100.0;101490;;;;
2022/09/23 01:54:03;;;;;;;0.9;0.9;;;;;;;11.0;100.0;101490;;;;
2022/09/23 01:55:04;;;;;;;0.9;0.9;;;;;;;11.1;100.0;101490;;;;
2022/09/23 01:56:04;;;;;;;0.9;0.9;;;;;;;11.1;100.0;101490;;;;
2022/09/23 01:57:03;;;;;;;0.9;0.9;;;;;;;10.9;100.0;101490;;;;
2022/09/23 01:58:03;;;;;;;0.9;0.9;;;;;;;10.9;100.0;101490;;;;
2022/09/23 01:59:01;;;;;;;0.9;0.9;;;;;;;11.1;100.0;101480;;;;
2022/09/23 02:00:04;;;;;;;0.9;0.9;;;;;;;11.1;100.0;101480;;;;
2022/09/23 02:01:01;;;;;;;0.9;0.9;;;;;;;11.1;100.0;101480;;;;
2022/09/23 02:02:00;;;;;;;0.9;0.9;;;;;;;11.1;100.0;101480;;;;
2022/09/23 02:03:03;;;;;;;0.9;0.9;;;;;;;11.1;100.0;101480;;;;
2022/09/23 02:04:03;;;;;;;0.9;0.9;;;;;;;11.1;100.0;101480;;;;
2022/09/23 02:05:04;;;;;;;0.9;0.9;;;;;;;11.1;100.0;101480;;;;
2022/09/23 02:06:00;;;;;;;0.9;0.9;;;;;;;11.1;100.0;101480;;;;
2022/09/23 02:07:03;;;;;;;1.3;1.3;;;;;;;11.0;100.0;101480;;;;
2022/09/23 02:08:06;;;;;;;1.3;1.3;;;;;;;11.0;100.0;101480;;;;
2022/09/23 02:09:03;;;;;;;1.3;1.3;;;;;;;11.1;100.0;101470;;;;
2022/09/23 02:10:04;;;;;;;1.3;1.3;;;;;;;11.1;100.0;101470;;;;
2022/09/23 02:11:06;;;;;;;1.3;1.3;;;;;;;11.1;100.0;101470;;;;
2022/09/23 02:12:04;;;;;;;1.3;1.3;;;;;;;11.1;100.0;101470;;;;
2022/09/23 02:13:04;;;;;;;1.3;1.3;;;;;;;11.1;100.0;101470;;;;
2022/09/23 02:14:06;;;;;;;1.3;1.3;;;;;;;11.1;100.0;101470;;;;
2022/09/23 02:15:03;;;;;;;1.3;1.3;;;;;;;11.1;100.0;101470;;;;
2022/09/23 02:16:04;;;;;;;1.3;1.3;;;;;;;11.1;100.0;101470;;;;
2022/09/23 02:17:05;;;;;;;1.3;1.3;;;;;;;11.2;100.0;101470;;;;
2022/09/23 02:18:02;;;;;;;1.3;1.3;;;;;;;11.2;100.0;101470;;;;
2022/09/23 02:19:05;;;;;;;1.3;1.3;;;;;;;11.1;100.0;101470;;;;
2022/09/23 02:20:02;;;;;;;1.3;1.3;;;;;;;11.1;100.0;101470;;;;
2022/09/23 02:21:03;;;;;;;1.3;1.3;;;;;;;11.0;100.0;101470;;;;
2022/09/23 02:22:08;;;;;;;1.3;1.3;;;;;;;11.0;100.0;101470;;;;
2022/09/23 02:23:01;;;;;;;1.3;1.3;;;;;;;11.0;100.0;101470;;;;
2022/09/23 02:24:04;;;;;;;1.3;1.3;;;;;;;11.0;100.0;101470;;;;
2022/09/23 02:25:02;;;;;;;1.3;1.3;;;;;;;10.9;100.0;101470;;;;
2022/09/23 02:26:10;;;;;;;1.3;1.3;;;;;;;10.9;100.0;101470;;;;
2022/09/23 02:27:09;;;;;;;1.3;1.3;;;;;;;11.1;100.0;101470;;;;
2022/09/23 02:28:07;;;;;;;1.3;1.3;;;;;;;11.1;100.0;101470;;;;
2022/09/23 02:29:06;;;;;;;1.3;1.3;;;;;;;11.1;100.0;101470;;;;
2022/09/23 02:30:03;;;;;;;1.3;1.3;;;;;;;11.1;100.0;101470;;;;
2022/09/23 02:31:06;;;;;;;1.3;1.3;;;;;;;11.1;100.0;101460;;;;
2022/09/23 02:32:00;;;;;;;1.3;1.3;;;;;;;11.1;100.0;101460;;;;
2022/09/23 02:33:03;;;;;;;1.3;1.3;;;;;;;11.0;100.0;101460;;;;
2022/09/23 02:34:10;;;;;;;1.3;1.3;;;;;;;11.0;100.0;101460;;;;
2022/09/23 02:35:05;;;;;;;1.3;1.3;;;;;;;11.0;100.0;101460;;;;
2022/09/23 02:36:05;;;;;;;1.3;1.3;;;;;;;11.0;100.0;101460;;;;
2022/09/23 02:37:03;;;;;;;1.3;1.3;;;;;;;11.0;100.0;101460;;;;
2022/09/23 02:38:03;;;;;;;1.3;1.3;;;;;;;11.0;100.0;101460;;;;
2022/09/23 02:39:02;;;;;;;1.3;1.3;;;;;;;11.0;100.0;101460;;;;
2022/09/23 02:40:07;;;;;;;1.3;1.3;;;;;;;11.0;100.0;101460;;;;
2022/09/23 02:41:06;;;;;;;1.3;1.3;;;;;;;11.1;100.0;101450;;;;
2022/09/23 02:42:04;;;;;;;1.3;1.3;;;;;;;11.1;100.0;101450;;;;
2022/09/23 02:43:05;;;;;;;1.3;1.3;;;;;;;11.1;100.0;101450;;;;
2022/09/23 02:44:05;;;;;;;1.3;1.3;;;;;;;11.1;100.0;101450;;;;
2022/09/23 02:45:00;;;;;;;1.3;1.3;;;;;;;11.1;100.0;101450;;;;
2022/09/23 02:46:01;;;;;;;1.3;1.3;;;;;;;11.1;100.0;101450;;;;
2022/09/23 02:47:00;;;;;;;1.0;1.0;;;;;;;11.2;100.0;101450;;;;
2022/09/23 02:48:10;;;;;;;1.0;1.0;;;;;;;11.2;100.0;101450;;;;
2022/09/23 02:49:09;;;;;;;1.0;1.0;;;;;;;11.1;100.0;101450;;;;
2022/09/23 02:50:00;;;;;;;1.0;1.0;;;;;;;11.1;100.0;101450;;;;
2022/09/23 02:51:02;;;;;;;1.0;1.0;;;;;;;11.1;100.0;101440;;;;
2022/09/23 02:52:03;;;;;;;1.0;1.0;;;;;;;11.1;100.0;101440;;;;
2022/09/23 02:53:00;;;;;;;1.0;1.0;;;;;;;11.0;100.0;101440;;;;
2022/09/23 02:54:01;;;;;;;1.0;1.0;;;;;;;11.0;100.0;101440;;;;
2022/09/23 02:55:00;;;;;;;1.0;1.0;;;;;;;11.0;100.0;101440;;;;
2022/09/23 02:56:00;;;;;;;1.0;1.0;;;;;;;11.0;100.0;101440;;;;
2022/09/23 02:57:01;;;;;;;1.0;1.0;;;;;;;11.0;100.0;101430;;;;
2022/09/23 02:58:01;;;;;;;1.0;1.0;;;;;;;11.0;100.0;101430;;;;
2022/09/23 02:59:01;;;;;;;1.0;1.0;;;;;;;10.9;100.0;101430;;;;
2022/09/23 03:00:01;;;;;;;1.0;1.0;;;;;;;10.9;100.0;101430;;;;
2022/09/23 03:01:04;;;;;;;1.0;1.0;;;;;;;11.0;100.0;101430;;;;
2022/09/23 03:02:03;;;;;;;1.0;1.0;;;;;;;11.0;100.0;101430;;;;
2022/09/23 03:03:09;;;;;;;1.0;1.0;;;;;;;11.0;100.0;101430;;;;
2022/09/23 03:04:10;;;;;;;1.0;1.0;;;;;;;11.0;100.0;101430;;;;
2022/09/23 03:05:00;;;;;;;1.0;1.0;;;;;;;10.9;100.0;101430;;;;
2022/09/23 03:06:03;;;;;;;1.0;1.0;;;;;;;10.9;100.0;101430;;;;
2022/09/23 03:07:00;;;;;;;0.9;0.9;;;;;;;11.0;100.0;101420;;;;
2022/09/23 03:08:09;;;;;;;0.9;0.9;;;;;;;11.0;100.0;101420;;;;
2022/09/23 03:09:05;;;;;;;0.9;0.9;;;;;;;10.9;100.0;101420;;;;
2022/09/23 03:10:10;;;;;;;0.9;0.9;;;;;;;10.9;100.0;101420;;;;
2022/09/23 03:11:09;;;;;;;0.9;0.9;;;;;;;11.0;100.0;101420;;;;
2022/09/23 03:12:10;;;;;;;0.9;0.9;;;;;;;11.0;100.0;101420;;;;
2022/09/23 03:13:12;;;;;;;0.9;0.9;;;;;;;11.0;100.0;101420;;;;
2022/09/23 03:14:16;;;;;;;0.9;0.9;;;;;;;11.0;100.0;101420;;;;
2022/09/23 03:15:00;;;;;;;0.9;0.9;;;;;;;10.9;100.0;101420;;;;
2022/09/23 03:16:03;;;;;;;0.9;0.9;;;;;;;10.9;100.0;101420;;;;
2022/09/23 03:17:04;;;;;;;0.9;0.9;;;;;;;10.8;100.0;101420;;;;
2022/09/23 03:18:11;;;;;;;0.9;0.9;;;;;;;10.8;100.0;101420;;;;
2022/09/23 03:19:11;;;;;;;0.9;0.9;;;;;;;10.7;100.0;101420;;;;
2022/09/23 03:20:05;;;;;;;0.9;0.9;;;;;;;10.7;100.0;101420;;;;
2022/09/23 03:21:04;;;;;;;0.9;0.9;;;;;;;10.8;100.0;101420;;;;
2022/09/23 03:22:06;;;;;;;0.9;0.9;;;;;;;10.8;100.0;101420;;;;
2022/09/23 03:23:01;;;;;;;0.9;0.9;;;;;;;10.7;100.0;101420;;;;
2022/09/23 03:24:02;;;;;;;0.9;0.9;;;;;;;10.7;100.0;101420;;;;
2022/09/23 03:25:05;;;;;;;0.9;0.9;;;;;;;10.8;100.0;101420;;;;
2022/09/23 03:26:04;;;;;;;0.9;0.9;;;;;;;10.8;100.0;101420;;;;
2022/09/23 03:27:02;;;;;;;1.2;1.2;;;;;;;10.7;100.0;101410;;;;
2022/09/23 03:28:00;;;;;;;1.2;1.2;;;;;;;10.7;100.0;101410;;;;
2022/09/23 03:29:02;;;;;;;1.2;1.2;;;;;;;10.7;100.0;101410;;;;
2022/09/23 03:30:00;;;;;;;1.2;1.2;;;;;;;10.7;100.0;101410;;;;
2022/09/23 03:31:00;;;;;;;1.2;1.2;;;;;;;10.7;100.0;101410;;;;
2022/09/23 03:32:00;;;;;;;1.2;1.2;;;;;;;10.7;100.0;101410;;;;
2022/09/23 03:33:02;;;;;;;1.2;1.2;;;;;;;10.8;100.0;101410;;;;
2022/09/23 03:34:02;;;;;;;1.2;1.2;;;;;;;10.8;100.0;101410;;;;
2022/09/23 03:35:01;;;;;;;1.2;1.2;;;;;;;10.6;100.0;101410;;;;
2022/09/23 03:37:06;;;;;;;1.2;1.2;;;;;;;10.6;100.0;101410;;;;
2022/09/23 03:38:06;;;;;;;1.2;1.2;;;;;;;10.6;100.0;101410;;;;
2022/09/23 03:39:10;;;;;;;1.2;1.2;;;;;;;10.6;100.0;101410;;;;
2022/09/23 03:40:06;;;;;;;1.2;1.2;;;;;;;10.6;100.0;101410;;;;
2022/09/23 03:41:03;;;;;;;1.2;1.2;;;;;;;10.4;100.0;101410;;;;
2022/09/23 03:42:04;;;;;;;1.2;1.2;;;;;;;10.4;100.0;101410;;;;
2022/09/23 03:43:01;;;;;;;1.2;1.2;;;;;;;10.3;100.0;101410;;;;
2022/09/23 03:44:00;;;;;;;1.2;1.2;;;;;;;10.3;100.0;101410;;;;
2022/09/23 03:45:03;;;;;;;1.2;1.2;;;;;;;10.3;100.0;101410;;;;
2022/09/23 03:46:00;;;;;;;1.2;1.2;;;;;;;10.3;100.0;101410;;;;
2022/09/23 03:47:01;;;;;;;1.0;1.0;;;;;;;10.6;100.0;101410;;;;
2022/09/23 03:48:00;;;;;;;1.0;1.0;;;;;;;10.6;100.0;101410;;;;
2022/09/23 03:49:08;;;;;;;1.0;1.0;;;;;;;10.6;100.0;101410;;;;
2022/09/23 03:50:00;;;;;;;1.0;1.0;;;;;;;10.6;100.0;101410;;;;
2022/09/23 03:51:07;;;;;;;1.0;1.0;;;;;;;10.5;100.0;101410;;;;
2022/09/23 03:52:02;;;;;;;1.0;1.0;;;;;;;10.5;100.0;101410;;;;
2022/09/23 03:53:00;;;;;;;1.0;1.0;;;;;;;10.6;100.0;101400;;;;
2022/09/23 03:54:00;;;;;;;1.0;1.0;;;;;;;10.6;100.0;101400;;;;
2022/09/23 03:55:00;;;;;;;1.0;1.0;;;;;;;10.5;100.0;101400;;;;
2022/09/23 03:56:00;;;;;;;1.0;1.0;;;;;;;10.5;100.0;101400;;;;
2022/09/23 03:57:01;;;;;;;1.0;1.0;;;;;;;10.6;100.0;101410;;;;
2022/09/23 03:58:02;;;;;;;1.0;1.0;;;;;;;10.6;100.0;101410;;;;
2022/09/23 03:59:00;;;;;;;1.0;1.0;;;;;;;10.4;100.0;101400;;;;
2022/09/23 04:00:00;;;;;;;1.0;1.0;;;;;;;10.4;100.0;101400;;;;
2022/09/23 04:01:00;;;;;;;1.0;1.0;;;;;;;10.4;100.0;101400;;;;
2022/09/23 04:02:01;;;;;;;1.0;1.0;;;;;;;10.4;100.0;101400;;;;
2022/09/23 04:03:00;;;;;;;1.0;1.0;;;;;;;10.4;100.0;101400;;;;
2022/09/23 04:04:00;;;;;;;1.0;1.0;;;;;;;10.4;100.0;101400;;;;
2022/09/23 04:05:00;;;;;;;1.0;1.0;;;;;;;10.5;100.0;101400;;;;
2022/09/23 04:06:00;;;;;;;1.0;1.0;;;;;;;10.5;100.0;101400;;;;
2022/09/23 04:07:00;;;;;;;0.8;0.8;;;;;;;10.5;100.0;101400;;;;
2022/09/23 04:08:00;;;;;;;0.8;0.8;;;;;;;10.5;100.0;101400;;;;
2022/09/23 04:09:00;;;;;;;0.8;0.8;;;;;;;10.5;100.0;101390;;;;
2022/09/23 04:10:00;;;;;;;0.8;0.8;;;;;;;10.5;100.0;101390;;;;
2022/09/23 04:11:00;;;;;;;0.8;0.8;;;;;;;10.4;100.0;101390;;;;
2022/09/23 04:12:00;;;;;;;0.8;0.8;;;;;;;10.4;100.0;101390;;;;
2022/09/23 04:13:00;;;;;;;0.8;0.8;;;;;;;10.4;100.0;101390;;;;
2022/09/23 04:14:00;;;;;;;0.8;0.8;;;;;;;10.4;100.0;101390;;;;
2022/09/23 04:15:00;;;;;;;0.8;0.8;;;;;;;10.4;100.0;101390;;;;
2022/09/23 04:16:00;;;;;;;0.8;0.8;;;;;;;10.4;100.0;101390;;;;
2022/09/23 04:17:00;;;;;;;0.8;0.8;;;;;;;10.5;100.0;101400;;;;
2022/09/23 04:18:00;;;;;;;0.8;0.8;;;;;;;10.5;100.0;101400;;;;
2022/09/23 04:19:00;;;;;;;0.8;0.8;;;;;;;10.4;100.0;101400;;;;
2022/09/23 04:20:00;;;;;;;0.8;0.8;;;;;;;10.4;100.0;101400;;;;
2022/09/23 04:21:00;;;;;;;0.8;0.8;;;;;;;10.4;100.0;101400;;;;
2022/09/23 04:22:00;;;;;;;0.8;0.8;;;;;;;10.4;100.0;101400;;;;
2022/09/23 04:23:00;;;;;;;0.8;0.8;;;;;;;10.4;100.0;101400;;;;
2022/09/23 04:24:00;;;;;;;0.8;0.8;;;;;;;10.4;100.0;101400;;;;
2022/09/23 04:25:00;;;;;;;0.8;0.8;;;;;;;10.4;100.0;101400;;;;
2022/09/23 04:26:00;;;;;;;0.8;0.8;;;;;;;10.4;100.0;101400;;;;
2022/09/23 04:27:00;;;;;;;1.1;1.1;;;;;;;10.4;100.0;101390;;;;
2022/09/23 04:28:00;;;;;;;1.1;1.1;;;;;;;10.4;100.0;101390;;;;
2022/09/23 04:29:01;;;;;;;1.1;1.1;;;;;;;10.4;100.0;101400;;;;
2022/09/23 04:30:00;;;;;;;1.1;1.1;;;;;;;10.4;100.0;101400;;;;
2022/09/23 04:31:04;;;;;;;1.1;1.1;;;;;;;10.3;100.0;101400;;;;
2022/09/23 04:32:00;;;;;;;1.1;1.1;;;;;;;10.3;100.0;101400;;;;
2022/09/23 04:33:00;;;;;;;1.1;1.1;;;;;;;10.4;100.0;101400;;;;
2022/09/23 04:34:00;;;;;;;1.1;1.1;;;;;;;10.4;100.0;101400;;;;
2022/09/23 04:35:00;;;;;;;1.1;1.1;;;;;;;10.3;100.0;101400;;;;
2022/09/23 04:36:00;;;;;;;1.1;1.1;;;;;;;10.3;100.0;101400;;;;
2022/09/23 04:37:00;;;;;;;1.1;1.1;;;;;;;10.3;100.0;101400;;;;
2022/09/23 04:38:00;;;;;;;1.1;1.1;;;;;;;10.3;100.0;101400;;;;
2022/09/23 04:39:00;;;;;;;1.1;1.1;;;;;;;10.3;100.0;101400;;;;
2022/09/23 04:40:00;;;;;;;1.1;1.1;;;;;;;10.3;100.0;101400;;;;
2022/09/23 04:41:00;;;;;;;1.1;1.1;;;;;;;10.3;100.0;101400;;;;
2022/09/23 04:42:00;;;;;;;1.1;1.1;;;;;;;10.3;100.0;101400;;;;
2022/09/23 04:43:00;;;;;;;1.1;1.1;;;;;;;10.3;100.0;101390;;;;
2022/09/23 04:44:00;;;;;;;1.1;1.1;;;;;;;10.3;100.0;101390;;;;
2022/09/23 04:45:00;;;;;;;1.1;1.1;;;;;;;10.3;100.0;101390;;;;
2022/09/23 04:46:01;;;;;;;11.2;2.3;;;;;;;10.3;100.0;101390;;;;
2022/09/23 04:47:00;;;;;;;11.2;2.3;;;;;;;10.4;100.0;101390;;;;
2022/09/23 04:48:01;;;;;;;11.2;2.3;;;;;;;10.4;100.0;101390;;;;
2022/09/23 04:49:00;;;;;;;11.2;2.3;;;;;;;10.3;100.0;101390;;;;
2022/09/23 04:50:00;;;;;;;11.2;2.3;;;;;;;10.3;100.0;101390;;;;
2022/09/23 04:51:02;;;;;;;11.2;2.3;;;;;;;10.3;100.0;101390;;;;
2022/09/23 04:52:01;;;;;;;11.2;2.3;;;;;;;10.3;100.0;101390;;;;
2022/09/23 04:53:01;;;;;;;11.2;2.3;;;;;;;10.2;100.0;101390;;;;
2022/09/23 04:54:00;;;;;;;11.2;2.3;;;;;;;10.2;100.0;101390;;;;
2022/09/23 04:55:00;;;;;;;11.2;2.3;;;;;;;10.2;100.0;101380;;;;
2022/09/23 04:56:00;;;;;;;11.2;2.3;;;;;;;10.2;100.0;101380;;;;
2022/09/23 04:57:00;;;;;;;11.2;2.3;;;;;;;10.2;100.0;101390;;;;
2022/09/23 04:58:00;;;;;;;11.2;2.3;;;;;;;10.2;100.0;101390;;;;
2022/09/23 04:59:00;;;;;;;11.2;2.3;;;;;;;10.2;100.0;101390;;;;
2022/09/23 05:00:00;;;;;;;11.2;2.3;;;;;;;10.2;100.0;101390;;;;
2022/09/23 05:01:10;;;;;;;11.2;2.3;;;;;;;10.3;100.0;101390;;;;
2022/09/23 05:02:00;;;;;;;11.2;2.3;;;;;;;10.3;100.0;101390;;;;
2022/09/23 05:03:00;;;;;;;11.2;2.3;;;;;;;10.2;100.0;101390;;;;
2022/09/23 05:04:01;;;;;;;11.2;2.3;;;;;;;10.2;100.0;101390;;;;
2022/09/23 05:05:00;;;;;;;11.2;2.3;;;;;;;10.2;100.0;101390;;;;
2022/09/23 05:06:00;;;;;;;1.0;1.0;;;;;;;10.2;100.0;101390;;;;
2022/09/23 05:07:03;;;;;;;1.0;1.0;;;;;;;10.3;100.0;101390;;;;
2022/09/23 05:08:00;;;;;;;1.0;1.0;;;;;;;10.3;100.0;101390;;;;
2022/09/23 05:09:01;;;;;;;1.0;1.0;;;;;;;10.3;100.0;101390;;;;
2022/09/23 05:10:00;;;;;;;1.0;1.0;;;;;;;10.3;100.0;101390;;;;
2022/09/23 05:11:01;;;;;;;1.0;1.0;;;;;;;10.3;100.0;101390;;;;
2022/09/23 05:12:00;;;;;;;1.0;1.0;;;;;;;10.3;100.0;101390;;;;
2022/09/23 05:13:00;;;;;;;1.0;1.0;;;;;;;10.3;100.0;101390;;;;
2022/09/23 05:14:00;;;;;;;1.0;1.0;;;;;;;10.3;100.0;101390;;;;
2022/09/23 05:15:00;;;;;;;1.0;1.0;;;;;;;10.3;100.0;101390;;;;
2022/09/23 05:16:01;;;;;;;1.0;1.0;;;;;;;10.3;100.0;101390;;;;
2022/09/23 05:17:00;;;;;;;1.0;1.0;;;;;;;10.2;100.0;101390;;;;
2022/09/23 05:18:01;;;;;;;1.0;1.0;;;;;;;10.2;100.0;101390;;;;
2022/09/23 05:19:01;;;;;;;1.0;1.0;;;;;;;10.3;100.0;101390;;;;
2022/09/23 05:20:00;;;;;;;1.0;1.0;;;;;;;10.3;100.0;101390;;;;
2022/09/23 05:21:00;;;;;;;1.0;1.0;;;;;;;10.2;100.0;101390;;;;
2022/09/23 05:22:00;;;;;;;1.0;1.0;;;;;;;10.2;100.0;101390;;;;
2022/09/23 05:23:00;;;;;;;1.0;1.0;;;;;;;10.3;100.0;101380;;;;
2022/09/23 05:24:00;;;;;;;1.0;1.0;;;;;;;10.3;100.0;101380;;;;
2022/09/23 05:25:01;;;;;;;1.0;1.0;;;;;;;10.3;100.0;101390;;;;
2022/09/23 05:26:01;;;;;;;1.7;1.6;;;;;;;10.3;100.0;101390;;;;
2022/09/23 05:27:00;;;;;;;1.7;1.6;;;;;;;10.3;100.0;101390;;;;
2022/09/23 05:28:00;;;;;;;1.7;1.6;;;;;;;10.3;100.0;101390;;;;
2022/09/23 05:29:00;;;;;;;1.7;1.6;;;;;;;10.3;100.0;101390;;;;
2022/09/23 05:30:00;;;;;;;1.7;1.6;;;;;;;10.3;100.0;101390;;;;
2022/09/23 05:31:01;;;;;;;1.7;1.6;;;;;;;10.3;100.0;101390;;;;
2022/09/23 05:32:00;;;;;;;1.7;1.6;;;;;;;10.3;100.0;101390;;;;
2022/09/23 05:33:01;;;;;;;1.7;1.6;;;;;;;10.3;100.0;101390;;;;
2022/09/23 05:34:01;;;;;;;1.7;1.6;;;;;;;10.3;100.0;101390;;;;
2022/09/23 05:35:00;;;;;;;1.7;1.6;;;;;;;10.3;100.0;101390;;;;
2022/09/23 05:36:00;;;;;;;1.7;1.6;;;;;;;10.3;100.0;101390;;;;
2022/09/23 05:37:00;;;;;;;1.7;1.6;;;;;;;10.3;100.0;101390;;;;
2022/09/23 05:38:00;;;;;;;1.7;1.6;;;;;;;10.3;100.0;101390;;;;
2022/09/23 05:39:00;;;;;;;1.7;1.6;;;;;;;10.3;100.0;101390;;;;
2022/09/23 05:40:00;;;;;;;1.7;1.6;;;;;;;10.3;100.0;101390;;;;
2022/09/23 05:41:02;;;;;;;1.7;1.6;;;;;;;10.3;100.0;101400;;;;
2022/09/23 05:42:00;;;;;;;1.7;1.6;;;;;;;10.3;100.0;101400;;;;
2022/09/23 05:43:00;;;;;;;1.7;1.6;;;;;;;10.4;100.0;101390;;;;
2022/09/23 05:44:00;;;;;;;1.7;1.6;;;;;;;10.4;100.0;101390;;;;
2022/09/23 05:45:00;;;;;;;1.7;1.6;;;;;;;10.3;100.0;101400;;;;
2022/09/23 05:46:04;;;;;;;1.1;1.1;;;;;;;10.3;100.0;101400;;;;
2022/09/23 05:47:00;;;;;;;1.1;1.1;;;;;;;10.4;100.0;101400;;;;
2022/09/23 05:48:00;;;;;;;1.1;1.1;;;;;;;10.4;100.0;101400;;;;
2022/09/23 05:49:04;;;;;;;1.1;1.1;;;;;;;10.4;100.0;101400;;;;
2022/09/23 05:50:00;;;;;;;1.1;1.1;;;;;;;10.4;100.0;101400;;;;
2022/09/23 05:51:00;;;;;;;1.1;1.1;;;;;;;10.4;100.0;101400;;;;
2022/09/23 05:52:00;;;;;;;1.1;1.1;;;;;;;10.4;100.0;101400;;;;
2022/09/23 05:53:00;;;;;;;1.1;1.1;;;;;;;10.4;100.0;101400;;;;
2022/09/23 05:54:02;;;;;;;1.1;1.1;;;;;;;10.4;100.0;101400;;;;
2022/09/23 05:55:01;;;;;;;1.1;1.1;;;;;;;10.4;100.0;101400;;;;
2022/09/23 05:56:00;;;;;;;1.1;1.1;;;;;;;10.4;100.0;101400;;;;
2022/09/23 05:57:05;;;;;;;1.1;1.1;;;;;;;10.5;100.0;101400;;;;
2022/09/23 05:58:00;;;;;;;1.1;1.1;;;;;;;10.5;100.0;101400;;;;
2022/09/23 05:59:01;;;;;;;1.1;1.1;;;;;;;10.5;100.0;101400;;;;
2022/09/23 06:00:00;;;;;;;1.1;1.1;;;;;;;10.5;100.0;101400;;;;
2022/09/23 06:01:00;;;;;;;1.1;1.1;;;;;;;10.4;100.0;101400;;;;
2022/09/23 06:02:00;;;;;;;1.1;1.1;;;;;;;10.4;100.0;101400;;;;
2022/09/23 06:03:00;;;;;;;1.1;1.1;;;;;;;10.4;100.0;101410;;;;
2022/09/23 06:04:01;;;;;;;1.1;1.1;;;;;;;10.4;100.0;101410;;;;
2022/09/23 06:05:00;;;;;;;1.1;1.1;;;;;;;10.4;100.0;101400;;;;
2022/09/23 06:06:00;;;;;;;1.0;1.0;;;;;;;10.4;100.0;101400;;;;
2022/09/23 06:07:03;;;;;;;1.0;1.0;;;;;;;10.5;100.0;101400;;;;
2022/09/23 06:08:00;;;;;;;1.0;1.0;;;;;;;10.5;100.0;101400;;;;
2022/09/23 06:09:00;;;;;;;1.0;1.0;;;;;;;10.5;100.0;101400;;;;
2022/09/23 06:10:00;;;;;;;1.0;1.0;;;;;;;10.5;100.0;101400;;;;
2022/09/23 06:11:05;;;;;;;1.0;1.0;;;;;;;10.5;100.0;101400;;;;
2022/09/23 06:12:00;;;;;;;1.0;1.0;;;;;;;10.5;100.0;101400;;;;
2022/09/23 06:13:00;;;;;;;1.0;1.0;;;;;;;10.6;100.0;101400;;;;
2022/09/23 06:14:01;;;;;;;1.0;1.0;;;;;;;10.6;100.0;101400;;;;
2022/09/23 06:15:00;;;;;;;1.0;1.0;;;;;;;10.5;100.0;101400;;;;
2022/09/23 06:16:00;;;;;;;1.0;1.0;;;;;;;10.5;100.0;101400;;;;
2022/09/23 06:17:00;;;;;;;1.0;1.0;;;;;;;10.5;100.0;101400;;;;
2022/09/23 06:18:00;;;;;;;1.0;1.0;;;;;;;10.5;100.0;101400;;;;
2022/09/23 06:19:05;;;;;;;1.0;1.0;;;;;;;10.6;100.0;101400;;;;
2022/09/23 06:20:00;;;;;;;1.0;1.0;;;;;;;10.6;100.0;101400;;;;
2022/09/23 06:21:01;;;;;;;1.0;1.0;;;;;;;10.6;100.0;101400;;;;
2022/09/23 06:22:00;;;;;;;1.0;1.0;;;;;;;10.6;100.0;101400;;;;
2022/09/23 06:23:07;;;;;;;1.0;1.0;;;;;;;10.8;100.0;101390;;;;